Time;durP1;ratioP1;P1;durP2;ratioP2;P2;SDS_P1;SDS_P2;PMS_P1;PMS_P2;Temp;Humidity;BMP_temperature;BMP_pressure;BME280_temperature;BME280_humidity;BME280_pressure;Samples;Min_cycle;Max_cycle;Signal;HPM_P1;HPM_P2
2023/07/18 05:02:51;;;;;;;9.90;3.83;;;16.90;93.50;;;;;;5278733;23;20134;-74
2023/07/18 05:05:17;;;;;;;7.32;3.45;;;17.00;93.40;;;;;;4912540;29;20322;-73
2023/07/18 05:07:44;;;;;;;9.93;3.85;;;17.10;93.10;;;;;;4923347;29;20020;-73
2023/07/18 05:10:10;;;;;;;8.85;3.30;;;17.10;92.90;;;;;;4922210;29;20036;-73
2023/07/18 05:12:36;;;;;;;7.28;3.22;;;17.10;92.90;;;;;;4910240;29;20028;-73
2023/07/18 05:15:02;;;;;;;7.72;3.45;;;17.20;92.80;;;;;;4909464;29;20241;-72
2023/07/18 05:17:28;;;;;;;9.02;3.40;;;17.20;92.70;;;;;;4910164;29;20076;-73
2023/07/18 05:19:53;;;;;;;9.45;3.58;;;17.30;92.60;;;;;;4924337;29;20020;-73
2023/07/18 05:22:19;;;;;;;10.23;3.70;;;17.40;92.40;;;;;;4928533;29;20024;-74
2023/07/18 05:24:45;;;;;;;7.25;3.35;;;17.50;92.20;;;;;;4928682;29;20314;-74
2023/07/18 05:27:10;;;;;;;7.53;4.18;;;17.50;92.10;;;;;;4929008;29;20294;-74
2023/07/18 05:29:36;;;;;;;11.32;4.15;;;17.60;92.00;;;;;;4929398;29;20198;-73
2023/07/18 05:32:02;;;;;;;10.77;3.85;;;17.70;92.10;;;;;;4928177;29;20063;-72
2023/07/18 05:34:28;;;;;;;7.78;3.17;;;17.70;91.90;;;;;;4928364;29;20356;-73
2023/07/18 05:36:53;;;;;;;9.50;3.92;;;17.80;91.80;;;;;;4912300;29;20027;-73
2023/07/18 05:39:19;;;;;;;11.10;4.80;;;17.80;91.50;;;;;;4909607;29;20431;-72
2023/07/18 05:41:45;;;;;;;11.38;5.85;;;17.90;91.70;;;;;;4908925;29;20199;-73
2023/07/18 05:44:10;;;;;;;10.48;4.20;;;18.00;91.50;;;;;;4909373;29;20032;-73
2023/07/18 05:46:36;;;;;;;16.67;9.40;;;18.20;91.20;;;;;;4908236;29;20314;-73
2023/07/18 05:49:02;;;;;;;9.45;4.10;;;18.20;91.10;;;;;;4909074;29;20088;-75
2023/07/18 05:51:28;;;;;;;11.05;3.80;;;18.30;90.90;;;;;;4909495;29;20032;-74
2023/07/18 05:53:53;;;;;;;11.27;4.30;;;18.30;90.70;;;;;;4909045;29;20041;-73
2023/07/18 05:56:19;;;;;;;8.73;4.35;;;18.40;90.60;;;;;;4909532;29;20040;-74
2023/07/18 05:58:45;;;;;;;10.20;3.55;;;18.50;90.30;;;;;;4908809;29;20044;-73
2023/07/18 06:01:14;;;;;;;8.88;3.70;;;18.50;90.20;;;;;;4908919;29;20024;-73
2023/07/18 06:03:40;;;;;;;9.45;3.80;;;18.70;90.30;;;;;;4909011;29;20063;-74
2023/07/18 06:06:07;;;;;;;8.38;4.00;;;18.80;90.00;;;;;;4909056;29;20111;-74
2023/07/18 06:08:33;;;;;;;6.47;3.33;;;18.90;89.50;;;;;;4923835;29;20077;-73
2023/07/18 06:10:58;;;;;;;12.60;3.97;;;19.00;89.40;;;;;;4908409;29;20044;-73
2023/07/18 06:13:25;;;;;;;7.88;3.70;;;19.10;89.00;;;;;;4908743;29;20188;-75
2023/07/18 06:15:51;;;;;;;6.05;3.58;;;19.20;88.30;;;;;;4907626;29;20040;-74
2023/07/18 06:18:17;;;;;;;10.23;4.00;;;19.20;88.20;;;;;;4908811;29;20032;-73
2023/07/18 06:20:43;;;;;;;11.98;3.85;;;19.10;88.80;;;;;;4907062;29;20219;-74
2023/07/18 06:23:09;;;;;;;13.55;4.15;;;19.20;88.40;;;;;;4908445;29;20033;-73
2023/07/18 06:25:38;;;;;;;10.60;3.92;;;19.40;87.60;;;;;;4907841;29;20088;-73
2023/07/18 06:28:04;;;;;;;;;;;19.40;87.80;;;;;;4908818;29;20098;-73
2023/07/18 06:30:30;;;;;;;10.38;3.90;;;19.60;87.40;;;;;;4908755;29;20203;-73
2023/07/18 06:32:56;;;;;;;11.23;3.40;;;19.70;86.40;;;;;;4907936;29;20028;-70
2023/07/18 06:35:22;;;;;;;9.68;3.20;;;19.80;85.80;;;;;;4923282;29;20036;-72
2023/07/18 06:37:48;;;;;;;9.35;3.53;;;19.80;84.80;;;;;;4907175;29;20251;-70
2023/07/18 06:40:14;;;;;;;8.63;3.47;;;20.00;84.80;;;;;;4906743;29;20020;-72
2023/07/18 06:42:40;;;;;;;9.68;3.10;;;20.10;84.30;;;;;;4908322;29;20065;-72
2023/07/18 06:45:07;;;;;;;6.85;3.22;;;20.20;83.00;;;;;;4907970;29;20032;-73
2023/07/18 06:47:33;;;;;;;7.57;3.22;;;20.30;82.00;;;;;;4907293;29;20032;-72
2023/07/18 06:49:58;;;;;;;7.13;2.83;;;20.40;82.30;;;;;;4907680;29;20036;-74
2023/07/18 06:52:24;;;;;;;7.70;3.30;;;20.40;82.10;;;;;;4908315;29;20302;-73
2023/07/18 06:54:50;;;;;;;8.98;3.13;;;20.50;82.30;;;;;;4907728;29;20036;-73
2023/07/18 06:57:15;;;;;;;8.40;3.05;;;20.60;81.30;;;;;;4907153;29;20040;-73
2023/07/18 06:59:41;;;;;;;9.32;2.75;;;20.70;80.50;;;;;;4908109;29;20036;-73
2023/07/18 07:02:11;;;;;;;6.53;2.95;;;20.70;80.80;;;;;;4906965;29;20114;-73
2023/07/18 07:04:39;;;;;;;8.43;2.70;;;20.70;80.70;;;;;;4907790;29;20318;-73
2023/07/18 07:07:06;;;;;;;9.95;3.67;;;20.80;80.40;;;;;;4907485;29;20037;-72
2023/07/18 07:09:33;;;;;;;7.63;3.05;;;20.90;80.80;;;;;;4907707;29;20048;-71
2023/07/18 07:11:59;;;;;;;10.40;3.97;;;21.00;80.70;;;;;;4921943;29;20099;-73
2023/07/18 07:14:25;;;;;;;11.10;3.65;;;21.10;80.50;;;;;;4907971;29;20036;-72
2023/07/18 07:16:51;;;;;;;9.18;3.45;;;21.20;80.30;;;;;;4907474;29;20029;-71
2023/07/18 07:19:17;;;;;;;8.00;3.08;;;21.40;79.60;;;;;;4907779;29;20096;-70
2023/07/18 07:21:43;;;;;;;5.88;2.90;;;21.50;78.90;;;;;;4908038;29;20103;-70
2023/07/18 07:24:09;;;;;;;14.15;3.38;;;21.50;78.60;;;;;;4907420;29;20035;-71
2023/07/18 07:26:37;;;;;;;7.18;3.50;;;21.40;77.70;;;;;;4907789;29;20024;-70
2023/07/18 07:29:04;;;;;;;10.80;3.30;;;21.50;78.80;;;;;;4907126;29;20310;-70
2023/07/18 07:31:31;;;;;;;8.63;3.13;;;21.60;78.50;;;;;;4907369;29;20111;-72
2023/07/18 07:33:56;;;;;;;8.65;3.30;;;21.70;78.60;;;;;;4906578;29;20040;-71
2023/07/18 07:36:22;;;;;;;8.73;2.80;;;21.50;77.60;;;;;;4907318;29;20032;-69
2023/07/18 07:38:48;;;;;;;6.85;2.58;;;21.60;77.70;;;;;;4902899;29;20028;-70
2023/07/18 07:41:14;;;;;;;8.38;2.67;;;21.80;77.80;;;;;;4888649;29;20093;-70
2023/07/18 07:43:40;;;;;;;6.03;2.67;;;21.90;77.10;;;;;;4888797;29;20041;-71
2023/07/18 07:46:05;;;;;;;8.10;2.75;;;22.00;76.90;;;;;;4888213;29;20314;-69
2023/07/18 07:48:31;;;;;;;7.60;2.60;;;22.20;76.80;;;;;;4888514;29;20025;-70
2023/07/18 07:51:03;;;;;;;6.80;2.40;;;22.30;75.30;;;;;;4901822;29;20049;-71
2023/07/18 07:53:30;;;;;;;6.20;2.13;;;22.50;75.00;;;;;;4904972;29;20024;-69
2023/07/18 07:55:56;;;;;;;5.18;2.00;;;22.50;74.70;;;;;;4905653;29;20045;-70
2023/07/18 07:58:21;;;;;;;5.63;2.50;;;22.60;74.60;;;;;;4906600;29;20055;-71
2023/07/18 08:00:47;;;;;;;10.63;2.15;;;22.70;73.30;;;;;;4906877;29;20218;-72
2023/07/18 08:03:13;;;;;;;6.90;2.15;;;22.80;73.00;;;;;;4906233;29;20251;-70
2023/07/18 08:05:39;;;;;;;7.35;3.58;;;22.80;73.50;;;;;;4906834;29;20040;-71
2023/07/18 08:08:04;;;;;;;32.60;13.95;;;22.90;73.20;;;;;;4906681;29;20091;-71
2023/07/18 08:10:30;;;;;;;9.25;4.13;;;22.80;73.50;;;;;;4907069;29;20439;-70
2023/07/18 08:12:56;;;;;;;24.20;9.52;;;22.80;72.80;;;;;;4905672;29;20036;-72
2023/07/18 08:15:22;;;;;;;11.68;4.03;;;22.90;73.50;;;;;;4906978;29;20040;-71
2023/07/18 08:17:48;;;;;;;5.80;2.25;;;23.00;73.70;;;;;;4906892;29;20029;-72
2023/07/18 08:20:13;;;;;;;9.82;4.78;;;23.10;72.70;;;;;;4906619;29;20110;-69
2023/07/18 08:22:40;;;;;;;5.10;2.15;;;23.30;71.90;;;;;;4906986;29;20036;-70
2023/07/18 08:25:05;;;;;;;6.03;1.95;;;23.50;71.40;;;;;;4906627;29;20103;-72
2023/07/18 08:27:31;;;;;;;8.20;2.28;;;23.50;70.60;;;;;;4907316;29;20033;-72
2023/07/18 08:29:57;;;;;;;5.05;1.52;;;23.80;70.80;;;;;;4906874;29;20133;-73
2023/07/18 08:32:23;;;;;;;3.95;1.63;;;23.70;69.80;;;;;;4906143;29;20039;-70
2023/07/18 08:34:49;;;;;;;5.40;1.92;;;23.80;70.50;;;;;;4906597;29;20066;-70
2023/07/18 08:37:15;;;;;;;5.30;1.95;;;23.90;70.40;;;;;;4907354;29;20036;-70
2023/07/18 08:39:41;;;;;;;5.88;1.80;;;24.10;70.90;;;;;;4906927;29;20207;-71
2023/07/18 08:42:07;;;;;;;4.10;1.80;;;24.10;69.20;;;;;;4905413;29;20032;-70
2023/07/18 08:44:35;;;;;;;8.68;2.00;;;24.10;68.50;;;;;;4907152;29;20042;-69
2023/07/18 08:47:05;;;;;;;4.83;1.87;;;24.10;69.20;;;;;;4908678;29;20214;-71
2023/07/18 08:49:32;;;;;;;6.40;1.80;;;24.10;68.50;;;;;;4910479;29;20048;-70
2023/07/18 08:51:57;;;;;;;3.95;1.60;;;24.20;69.10;;;;;;4909249;29;20043;-72
2023/07/18 08:54:23;;;;;;;6.03;1.95;;;24.30;68.40;;;;;;4909927;29;20274;-74
2023/07/18 08:56:49;;;;;;;4.18;1.73;;;24.30;68.20;;;;;;4910297;29;20035;-71
2023/07/18 08:59:16;;;;;;;5.30;1.88;;;24.30;68.10;;;;;;4909631;29;20044;-72
2023/07/18 09:01:47;;;;;;;9.27;2.17;;;24.40;68.30;;;;;;4910070;29;20086;-72
2023/07/18 09:04:12;;;;;;;6.47;2.03;;;24.50;69.30;;;;;;4909036;29;20032;-70
2023/07/18 09:06:49;;;;;;;7.05;1.60;;;24.70;68.20;;;;;;4909978;29;20357;-69
2023/07/18 09:09:21;;;;;;;5.95;2.33;;;24.70;67.90;;;;;;4909476;29;20060;-69
2023/07/18 09:12:02;;;;;;;17.30;2.85;;;24.90;68.10;;;;;;4891267;29;20052;-73
2023/07/18 09:14:31;;;;;;;9.77;2.03;;;25.10;67.70;;;;;;4908177;29;20060;-71
2023/07/18 09:17:01;;;;;;;5.38;1.90;;;25.10;68.00;;;;;;4909360;29;20056;-71
2023/07/18 09:19:45;;;;;;;4.03;1.90;;;25.20;66.50;;;;;;4905149;29;20107;-70
2023/07/18 09:22:17;;;;;;;7.97;2.20;;;25.20;66.70;;;;;;4890480;29;20361;-69
2023/07/18 09:24:43;;;;;;;4.93;1.85;;;25.40;66.70;;;;;;4891264;29;20044;-69
2023/07/18 09:27:19;;;;;;;3.55;1.60;;;25.60;65.40;;;;;;4890336;29;20049;-71
2023/07/18 09:29:48;;;;;;;5.93;1.88;;;25.60;65.10;;;;;;4891080;29;20033;-71
2023/07/18 09:32:19;;;;;;;20.00;13.50;;;25.50;64.80;;;;;;4905995;29;20207;-71
2023/07/18 09:34:55;;;;;;;6.22;2.50;;;25.60;66.10;;;;;;4909416;29;20037;-70
2023/07/18 09:37:21;;;;;;;5.63;1.88;;;25.60;64.50;;;;;;4909975;29;20029;-70
2023/07/18 09:39:47;;;;;;;8.32;2.03;;;25.40;64.70;;;;;;4909692;29;20092;-72
2023/07/18 09:42:16;;;;;;;4.57;1.88;;;25.70;65.20;;;;;;4908735;29;20053;-71
2023/07/18 09:44:45;;;;;;;4.10;1.80;;;25.90;64.20;;;;;;4908729;29;20086;-70
2023/07/18 09:47:13;;;;;;;6.88;2.20;;;26.20;64.10;;;;;;4908525;29;20316;-70
2023/07/18 09:49:40;;;;;;;7.57;2.20;;;26.40;63.10;;;;;;4907816;29;20241;-70
2023/07/18 09:52:06;;;;;;;5.68;2.13;;;26.70;63.60;;;;;;4908940;29;20044;-71
2023/07/18 09:54:33;;;;;;;4.65;1.98;;;27.30;62.80;;;;;;4909029;29;20077;-70
2023/07/18 09:57:12;;;;;;;6.45;1.83;;;27.60;61.90;;;;;;4907887;29;20035;-70
2023/07/18 09:59:39;;;;;;;5.80;1.85;;;28.10;61.20;;;;;;4908970;29;20099;-71
2023/07/18 10:02:06;;;;;;;9.20;2.22;;;28.60;59.70;;;;;;4908099;29;20330;-71
2023/07/18 10:04:35;;;;;;;4.35;1.98;;;29.10;60.30;;;;;;4909033;29;20112;-69
2023/07/18 10:07:02;;;;;;;7.93;2.35;;;29.50;57.20;;;;;;4908856;29;20036;-70
2023/07/18 10:09:29;;;;;;;7.82;2.30;;;29.40;57.10;;;;;;4908634;29;20039;-69
2023/07/18 10:11:58;;;;;;;5.60;1.77;;;29.30;57.40;;;;;;4908229;29;20036;-70
2023/07/18 10:14:56;;;;;;;6.10;1.60;;;28.90;57.90;;;;;;4908653;29;20199;-69
2023/07/18 10:17:31;;;;;;;4.40;1.83;;;29.00;59.10;;;;;;4904700;29;20107;-73
2023/07/18 10:19:56;;;;;;;8.95;5.18;;;28.80;58.30;;;;;;4907167;29;20047;-72
2023/07/18 10:22:30;;;;;;;3.72;1.95;;;28.50;58.50;;;;;;4908790;29;20044;-73
2023/07/18 10:25:04;;;;;;;7.22;3.03;;;28.40;59.00;;;;;;4908546;29;20080;-73
2023/07/18 10:27:39;;;;;;;4.63;2.00;;;28.20;59.30;;;;;;4907571;29;20039;-77
2023/07/18 10:30:07;;;;;;;6.45;1.98;;;28.00;60.00;;;;;;4908145;29;20099;-72
2023/07/18 10:32:36;;;;;;;3.70;1.90;;;27.70;60.10;;;;;;4908482;29;20068;-74
2023/07/18 10:35:06;;;;;;;4.68;1.70;;;27.40;60.80;;;;;;4908021;29;20099;-73
2023/07/18 10:37:32;;;;;;;5.97;2.35;;;27.40;61.00;;;;;;4909008;29;20047;-73
2023/07/18 10:39:58;;;;;;;7.30;2.30;;;27.40;61.60;;;;;;4908205;29;20056;-75
2023/07/18 10:42:26;;;;;;;5.60;2.20;;;27.50;61.40;;;;;;4908540;29;20048;-71
2023/07/18 10:45:06;;;;;;;7.10;2.20;;;27.70;61.00;;;;;;4908334;29;20035;-72
2023/07/18 10:47:35;;;;;;;5.80;2.22;;;28.10;60.50;;;;;;4908547;29;20314;-72
2023/07/18 10:50:02;;;;;;;5.38;2.17;;;28.50;59.70;;;;;;4908114;29;20307;-72
2023/07/18 10:52:28;;;;;;;4.97;2.30;;;29.00;58.80;;;;;;4908661;29;20044;-72
2023/07/18 10:54:56;;;;;;;4.03;1.85;;;29.30;58.70;;;;;;4908491;29;20365;-71
2023/07/18 10:57:37;;;;;;;3.72;1.90;;;29.40;58.50;;;;;;4908400;29;20032;-73
2023/07/18 11:00:05;;;;;;;4.47;2.22;;;29.50;58.30;;;;;;4907928;29;20032;-72
2023/07/18 11:02:41;;;;;;;4.50;2.05;;;29.60;57.40;;;;;;4907785;29;20060;-70
2023/07/18 11:05:12;;;;;;;6.13;2.00;;;30.00;57.00;;;;;;4907553;29;20036;-71
2023/07/18 11:07:43;;;;;;;5.85;2.22;;;30.50;56.20;;;;;;4908308;29;20032;-71
2023/07/18 11:10:10;;;;;;;5.15;2.50;;;31.00;55.90;;;;;;4916218;29;20051;-73
2023/07/18 11:12:37;;;;;;;9.00;2.60;;;31.00;56.10;;;;;;4907859;29;20051;-72
2023/07/18 11:15:05;;;;;;;4.43;1.80;;;30.60;55.60;;;;;;4907304;29;20048;-72
2023/07/18 11:17:31;;;;;;;5.57;2.47;;;30.40;56.20;;;;;;4907802;29;20097;-72
2023/07/18 11:19:58;;;;;;;4.10;2.30;;;29.90;57.20;;;;;;4907643;29;20036;-69
2023/07/18 11:22:24;;;;;;;5.28;2.35;;;29.30;57.50;;;;;;4907803;29;20336;-69
2023/07/18 11:24:51;;;;;;;5.75;2.58;;;28.50;58.40;;;;;;4907893;29;20040;-71
2023/07/18 11:27:22;;;;;;;5.47;2.20;;;28.30;59.20;;;;;;4907026;29;20114;-71
2023/07/18 11:29:56;;;;;;;5.38;1.90;;;28.10;59.50;;;;;;4907819;29;20036;-71
2023/07/18 11:32:41;;;;;;;4.90;2.03;;;27.90;60.20;;;;;;4907201;29;20040;-71
2023/07/18 11:35:08;;;;;;;4.95;2.50;;;27.60;60.80;;;;;;4907271;29;20104;-71
2023/07/18 11:37:41;;;;;;;5.43;2.15;;;27.40;61.30;;;;;;4907712;29;20311;-72
2023/07/18 11:40:08;;;;;;;4.57;1.95;;;27.20;61.90;;;;;;4907180;29;20259;-70
2023/07/18 11:42:51;;;;;;;6.07;3.67;;;26.90;62.70;;;;;;4907246;29;20044;-70
2023/07/18 11:45:27;;;;;;;4.47;1.92;;;26.90;64.00;;;;;;4888509;29;20040;-71
2023/07/18 11:47:55;;;;;;;5.78;2.45;;;26.80;64.10;;;;;;4889045;29;20247;-70
2023/07/18 11:50:25;;;;;;;9.77;4.95;;;26.70;64.10;;;;;;4902551;29;20065;-71
2023/07/18 11:52:52;;;;;;;5.55;2.10;;;26.70;64.80;;;;;;4888826;29;20168;-74
2023/07/18 11:55:19;;;;;;;8.50;3.95;;;26.90;64.60;;;;;;4888270;29;20077;-71
2023/07/18 11:57:45;;;;;;;6.43;2.38;;;27.00;65.00;;;;;;4887781;29;20025;-70
2023/07/18 12:00:12;;;;;;;4.22;1.75;;;27.30;65.40;;;;;;4888261;29;20029;-70
2023/07/18 12:02:41;;;;;;;5.20;2.50;;;27.50;64.20;;;;;;4906836;29;20059;-71
2023/07/18 12:05:07;;;;;;;4.35;2.25;;;27.90;64.00;;;;;;4906556;29;20036;-70
2023/07/18 12:07:36;;;;;;;6.65;2.28;;;28.20;62.20;;;;;;4907509;29;20172;-70
2023/07/18 12:10:06;;;;;;;4.55;2.08;;;28.20;61.90;;;;;;4906708;29;20263;-71
2023/07/18 12:12:33;;;;;;;6.53;2.60;;;28.20;61.80;;;;;;4906976;29;20079;-72
2023/07/18 12:15:00;;;;;;;5.50;2.55;;;28.40;62.40;;;;;;4906245;29;20056;-71
2023/07/18 12:17:26;;;;;;;3.70;1.73;;;28.50;62.40;;;;;;4906652;29;20319;-70
2023/07/18 12:19:52;;;;;;;4.63;2.33;;;28.50;62.50;;;;;;4907696;29;20028;-72
2023/07/18 12:22:18;;;;;;;5.80;2.30;;;28.60;62.00;;;;;;4910371;29;20268;-72
2023/07/18 12:24:44;;;;;;;4.65;2.45;;;28.60;61.90;;;;;;4911183;29;20214;-72
2023/07/18 12:27:12;;;;;;;5.97;2.35;;;28.90;62.00;;;;;;4910231;29;20040;-73
2023/07/18 12:29:38;;;;;;;8.07;2.60;;;29.10;61.30;;;;;;4910581;29;20318;-71
2023/07/18 12:32:05;;;;;;;5.13;2.90;;;29.50;61.30;;;;;;4910347;29;20099;-70
2023/07/18 12:34:31;;;;;;;6.30;2.22;;;29.80;60.60;;;;;;4910843;29;20281;-72
2023/07/18 12:36:56;;;;;;;4.18;2.28;;;30.10;60.50;;;;;;4910508;29;20029;-71
2023/07/18 12:39:22;;;;;;;6.82;2.45;;;30.30;59.90;;;;;;4910428;29;20076;-71
2023/07/18 12:41:49;;;;;;;5.25;2.30;;;30.70;59.70;;;;;;4910830;29;20044;-71
2023/07/18 12:44:20;;;;;;;4.55;2.25;;;30.90;58.50;;;;;;4910139;29;20036;-71
2023/07/18 12:46:47;;;;;;;6.13;2.53;;;31.10;59.20;;;;;;4910740;29;20092;-72
2023/07/18 12:49:13;;;;;;;3.40;2.00;;;30.90;58.30;;;;;;4909878;29;20020;-70
2023/07/18 12:51:41;;;;;;;4.95;2.35;;;31.00;58.50;;;;;;4910472;29;20028;-72
2023/07/18 12:54:07;;;;;;;5.45;2.13;;;31.40;58.00;;;;;;4909942;29;20280;-71
2023/07/18 12:56:33;;;;;;;4.32;2.20;;;32.20;56.80;;;;;;4908785;29;20043;-71
2023/07/18 12:58:59;;;;;;;5.15;2.15;;;32.50;56.30;;;;;;4910378;29;20047;-71
2023/07/18 13:01:25;;;;;;;4.03;2.17;;;32.60;55.10;;;;;;4909329;29;20254;-71
2023/07/18 13:03:51;;;;;;;4.38;2.95;;;32.20;55.70;;;;;;4910161;29;20099;-71
2023/07/18 13:06:17;;;;;;;13.68;9.85;;;32.30;56.10;;;;;;4910042;29;20037;-72
2023/07/18 13:08:42;;;;;;;3.80;2.08;;;32.20;56.00;;;;;;4909715;29;20057;-71
2023/07/18 13:11:08;;;;;;;5.75;1.90;;;32.40;55.80;;;;;;4909073;29;20032;-74
2023/07/18 13:13:34;;;;;;;3.90;1.90;;;32.10;56.40;;;;;;4910132;29;20031;-73
2023/07/18 13:16:00;;;;;;;3.67;2.05;;;32.10;56.90;;;;;;4910285;29;20059;-73
2023/07/18 13:18:25;;;;;;;4.60;2.25;;;31.70;56.50;;;;;;4909345;29;20036;-71
2023/07/18 13:20:51;;;;;;;4.50;2.40;;;31.00;57.30;;;;;;4909805;29;20141;-72
2023/07/18 13:23:17;;;;;;;6.18;2.78;;;30.80;58.20;;;;;;4909668;29;20024;-71
2023/07/18 13:25:42;;;;;;;5.68;2.13;;;30.60;59.30;;;;;;4924569;29;20032;-70
2023/07/18 13:28:08;;;;;;;6.55;2.22;;;30.50;58.20;;;;;;4909214;29;20060;-69
2023/07/18 13:30:34;;;;;;;6.13;2.45;;;30.40;58.10;;;;;;4909796;29;20052;-69
2023/07/18 13:33:00;;;;;;;4.80;2.60;;;30.50;57.70;;;;;;4908754;29;20047;-70
2023/07/18 13:35:26;;;;;;;6.80;2.47;;;31.00;57.80;;;;;;4909510;29;20314;-70
2023/07/18 13:37:51;;;;;;;4.18;2.42;;;32.10;56.00;;;;;;4909636;29;20311;-70
2023/07/18 13:40:17;;;;;;;4.25;2.53;;;33.60;55.40;;;;;;4908813;29;20033;-70
2023/07/18 13:42:43;;;;;;;6.18;2.03;;;34.80;53.70;;;;;;4909652;29;20100;-71
2023/07/18 13:45:10;;;;;;;4.65;2.03;;;36.10;52.10;;;;;;4908813;29;20029;-71
2023/07/18 13:47:36;;;;;;;5.07;2.22;;;36.80;51.00;;;;;;4909639;29;20033;-70
2023/07/18 13:50:02;;;;;;;3.78;1.80;;;37.60;50.00;;;;;;4908348;29;20260;-71
2023/07/18 13:52:28;;;;;;;3.30;1.80;;;38.00;49.10;;;;;;4908681;29;20059;-70
2023/07/18 13:54:53;;;;;;;5.13;2.30;;;37.40;49.70;;;;;;4909215;29;20041;-72
2023/07/18 13:57:19;;;;;;;5.10;2.00;;;37.40;49.10;;;;;;4908841;29;20044;-71
2023/07/18 13:59:45;;;;;;;4.32;2.35;;;37.50;49.70;;;;;;4909229;29;20082;-71
2023/07/18 14:02:11;;;;;;;5.57;1.88;;;37.80;49.40;;;;;;4908599;29;20079;-70
2023/07/18 14:04:39;;;;;;;3.88;2.10;;;37.40;49.80;;;;;;4909242;29;20036;-70
2023/07/18 14:07:05;;;;;;;5.15;2.30;;;37.20;49.60;;;;;;4909278;29;20080;-72
2023/07/18 14:09:31;;;;;;;4.95;2.50;;;36.10;50.90;;;;;;4908840;29;20028;-72
2023/07/18 14:11:57;;;;;;;5.35;2.35;;;34.80;51.90;;;;;;4909140;29;20338;-72
2023/07/18 14:14:23;;;;;;;5.97;2.50;;;33.50;53.20;;;;;;4908597;29;20263;-72
2023/07/18 14:16:49;;;;;;;4.88;2.13;;;33.20;54.30;;;;;;4909479;29;20239;-72
2023/07/18 14:19:14;;;;;;;3.45;2.13;;;32.70;54.20;;;;;;4908262;29;20088;-72
2023/07/18 14:21:40;;;;;;;4.50;2.10;;;32.50;55.00;;;;;;4909190;29;20040;-73
2023/07/18 14:24:06;;;;;;;4.82;2.28;;;32.60;55.50;;;;;;4907669;29;20035;-72
2023/07/18 14:26:32;;;;;;;7.75;2.60;;;32.20;55.50;;;;;;4908357;29;20551;-71
2023/07/18 14:28:57;;;;;;;3.60;2.30;;;31.90;55.80;;;;;;4908524;29;20076;-72
2023/07/18 14:31:24;;;;;;;4.82;2.47;;;31.60;56.70;;;;;;4908287;29;20112;-72
2023/07/18 14:33:50;;;;;;;5.93;2.13;;;31.30;57.10;;;;;;4908777;29;20032;-71
2023/07/18 14:36:16;;;;;;;6.93;2.88;;;31.60;57.80;;;;;;4908161;29;20234;-71
2023/07/18 14:38:41;;;;;;;5.97;2.40;;;31.50;57.20;;;;;;4908371;29;20033;-69
2023/07/18 14:41:07;;;;;;;5.10;2.50;;;31.70;57.60;;;;;;4908938;29;20032;-70
2023/07/18 14:43:33;;;;;;;7.53;2.42;;;31.50;57.50;;;;;;4907831;29;20028;-70
2023/07/18 14:46:03;;;;;;;6.22;2.55;;;31.90;56.80;;;;;;4908348;29;20033;-70
2023/07/18 14:48:28;;;;;;;3.75;2.13;;;32.90;55.90;;;;;;4906781;29;20036;-69
2023/07/18 14:50:54;;;;;;;6.68;4.97;;;34.20;55.00;;;;;;4908232;29;20047;-69
2023/07/18 14:53:21;;;;;;;7.30;4.07;;;34.90;54.00;;;;;;4907855;29;20092;-69
2023/07/18 14:55:47;;;;;;;5.35;2.58;;;35.40;52.90;;;;;;4908535;29;20040;-70
2023/07/18 14:58:12;;;;;;;3.85;2.20;;;35.50;52.60;;;;;;4907935;29;20103;-70
2023/07/18 15:00:38;;;;;;;4.57;2.30;;;34.70;53.10;;;;;;4908197;29;20036;-68
2023/07/18 15:03:04;;;;;;;5.65;2.60;;;34.50;53.50;;;;;;4906921;29;20053;-69
2023/07/18 15:05:30;;;;;;;5.38;2.35;;;34.80;52.70;;;;;;4907945;29;20048;-69
2023/07/18 15:07:56;;;;;;;5.00;2.08;;;34.50;53.40;;;;;;4908216;29;20095;-69
2023/07/18 15:10:22;;;;;;;5.55;2.50;;;34.20;53.40;;;;;;4903492;29;20056;-71
2023/07/18 15:12:48;;;;;;;5.38;2.13;;;34.10;54.20;;;;;;4893759;29;20310;-69
2023/07/18 15:15:15;;;;;;;5.10;2.33;;;34.10;53.60;;;;;;4907445;29;20035;-69
2023/07/18 15:17:45;;;;;;;4.32;2.55;;;34.80;53.80;;;;;;4908167;29;20047;-70
2023/07/18 15:20:15;;;;;;;5.05;2.35;;;35.90;52.40;;;;;;4907729;29;20096;-69
2023/07/18 15:22:41;;;;;;;6.00;2.28;;;36.80;51.40;;;;;;4907714;29;20040;-68
2023/07/18 15:25:09;;;;;;;4.60;2.20;;;38.10;50.80;;;;;;4907574;29;20050;-69
2023/07/18 15:27:36;;;;;;;5.93;2.45;;;39.20;48.40;;;;;;4907741;29;20032;-70
2023/07/18 15:30:07;;;;;;;3.83;2.10;;;39.90;48.50;;;;;;4907608;29;20045;-69
2023/07/18 15:32:33;;;;;;;4.32;2.08;;;41.30;47.40;;;;;;4906968;29;20044;-69
2023/07/18 15:35:00;;;;;;;6.18;2.30;;;40.50;47.20;;;;;;4908031;29;20040;-70
2023/07/18 15:37:26;;;;;;;4.72;2.22;;;41.80;46.80;;;;;;4907333;29;20247;-69
2023/07/18 15:39:52;;;;;;;4.72;2.28;;;41.40;46.00;;;;;;4907538;29;20040;-69
2023/07/18 15:42:18;;;;;;;3.72;2.05;;;41.10;45.90;;;;;;4907046;29;20043;-71
2023/07/18 15:44:45;;;;;;;2.90;1.80;;;41.40;46.30;;;;;;4907556;29;20315;-71
2023/07/18 15:47:11;;;;;;;3.90;2.20;;;42.20;45.40;;;;;;4906962;29;20433;-71
2023/07/18 15:49:37;;;;;;;6.00;2.20;;;42.20;45.30;;;;;;4907420;29;20225;-70
2023/07/18 15:52:05;;;;;;;4.63;2.40;;;42.10;44.80;;;;;;4907585;29;20060;-72
2023/07/18 15:54:31;;;;;;;6.55;2.38;;;42.70;45.10;;;;;;4907097;29;20104;-74
2023/07/18 15:56:57;;;;;;;5.63;2.25;;;41.70;45.00;;;;;;4910479;29;20040;-73
2023/07/18 15:59:23;;;;;;;3.75;2.20;;;41.90;45.50;;;;;;4910777;29;20269;-72
2023/07/18 16:01:53;;;;;;;4.82;2.50;;;41.90;45.60;;;;;;4910955;29;20052;-71
2023/07/18 16:04:19;;;;;;;6.00;2.35;;;41.10;45.60;;;;;;4911073;29;20056;-72
2023/07/18 16:06:45;;;;;;;4.88;2.03;;;42.70;45.50;;;;;;4911405;29;20095;-71
2023/07/18 16:09:11;;;;;;;5.47;2.30;;;43.80;44.40;;;;;;4910677;29;20255;-69
2023/07/18 16:11:37;;;;;;;4.82;2.40;;;45.00;43.70;;;;;;4911615;29;20104;-69
2023/07/18 16:14:03;;;;;;;5.03;1.80;;;45.60;43.30;;;;;;4911157;29;20229;-68
2023/07/18 16:16:29;;;;;;;3.78;2.28;;;45.00;42.40;;;;;;4909427;29;20080;-69
2023/07/18 16:18:56;;;;;;;5.43;2.13;;;45.70;42.20;;;;;;4911341;29;20095;-69
2023/07/18 16:21:24;;;;;;;4.50;1.80;;;44.70;43.00;;;;;;4910761;29;20133;-72
2023/07/18 16:23:51;;;;;;;4.63;3.95;;;44.90;42.80;;;;;;4910969;29;20349;-72
2023/07/18 16:26:18;;;;;;;4.68;2.22;;;44.40;42.80;;;;;;4907781;29;20032;-69
2023/07/18 16:28:45;;;;;;;5.45;2.13;;;44.90;43.40;;;;;;4909916;29;20047;-70
2023/07/18 16:31:11;;;;;;;3.30;2.38;;;45.30;42.30;;;;;;4909767;29;20095;-70
2023/07/18 16:33:37;;;;;;;4.47;2.33;;;44.40;42.60;;;;;;4910557;29;20091;-72
2023/07/18 16:36:04;;;;;;;4.90;2.10;;;43.60;43.50;;;;;;4909722;29;20243;-71
2023/07/18 16:38:33;;;;;;;;;;;43.50;43.40;;;;;;4910825;29;20373;-72
2023/07/18 16:40:59;;;;;;;4.28;2.40;;;42.20;44.30;;;;;;4910930;29;19907;-71
2023/07/18 16:43:25;;;;;;;4.57;2.72;;;39.50;46.20;;;;;;4909943;29;20100;-71
2023/07/18 16:45:51;;;;;;;8.43;2.90;;;38.20;47.70;;;;;;4910881;29;20341;-71
2023/07/18 16:48:19;;;;;;;4.20;2.35;;;37.70;48.70;;;;;;4909991;29;20033;-73
2023/07/18 16:50:45;;;;;;;4.07;2.60;;;37.00;49.10;;;;;;4910589;29;20095;-70
2023/07/18 16:53:11;;;;;;;4.70;2.53;;;36.20;51.30;;;;;;4910589;29;20149;-72
2023/07/18 16:55:37;;;;;;;6.80;2.63;;;35.90;51.40;;;;;;4909639;29;20100;-71
2023/07/18 16:58:03;;;;;;;4.90;2.72;;;35.40;52.00;;;;;;4910369;29;20202;-73
2023/07/18 17:00:29;;;;;;;5.90;2.60;;;34.70;52.10;;;;;;4909800;29;20039;-71
2023/07/18 17:02:55;;;;;;;5.72;2.58;;;34.30;53.00;;;;;;4909897;29;20040;-71
2023/07/18 17:05:21;;;;;;;4.50;2.55;;;33.70;53.20;;;;;;4909632;29;20028;-71
2023/07/18 17:07:47;;;;;;;6.05;2.45;;;33.10;54.50;;;;;;4910310;29;20032;-72
2023/07/18 17:10:13;;;;;;;5.25;2.45;;;32.60;55.40;;;;;;4910071;29;20267;-73
2023/07/18 17:12:38;;;;;;;6.28;2.47;;;31.90;56.20;;;;;;4909786;29;20091;-71
2023/07/18 17:15:06;;;;;;;4.18;2.45;;;31.40;57.10;;;;;;4910250;29;20052;-70
2023/07/18 17:17:32;;;;;;;7.50;3.05;;;30.80;58.20;;;;;;4909838;29;20024;-70
2023/07/18 17:19:59;;;;;;;5.78;2.45;;;30.40;58.70;;;;;;4909898;29;20028;-71
2023/07/18 17:22:25;;;;;;;3.50;2.40;;;30.00;59.90;;;;;;4909520;29;20048;-72
2023/07/18 17:24:51;;;;;;;5.00;2.45;;;30.00;60.60;;;;;;4909251;29;20222;-74
2023/07/18 17:27:17;;;;;;;5.05;2.60;;;30.10;60.60;;;;;;4909468;29;20028;-71
2023/07/18 17:29:43;;;;;;;4.88;2.72;;;30.20;60.10;;;;;;4910160;29;20021;-73
2023/07/18 17:32:09;;;;;;;4.15;2.50;;;30.00;59.80;;;;;;4908792;29;20040;-72
2023/07/18 17:34:35;;;;;;;5.18;2.72;;;29.80;61.00;;;;;;4909273;29;20044;-73
2023/07/18 17:37:05;;;;;;;5.78;2.60;;;29.60;61.20;;;;;;4909654;29;20348;-72
2023/07/18 17:39:31;;;;;;;7.15;2.83;;;29.40;61.40;;;;;;4909562;29;20052;-73
2023/07/18 17:41:59;;;;;;;4.78;2.75;;;28.90;62.00;;;;;;4910019;29;20051;-72
2023/07/18 17:44:25;;;;;;;;;;;28.90;62.70;;;;;;4909709;29;20040;-72
2023/07/18 17:46:51;;;;;;;7.35;3.03;;;28.80;62.70;;;;;;4909104;29;19923;-73